sensor_id;sensor_type;location;lat;lon;timestamp;pressure;altitude;pressure_sealevel;temperature;humidity
42067;BME280;27734;47.028;28.820;2022-09-09T00:00:30;100609.27;;;17.49;68.38
42067;BME280;27734;47.028;28.820;2022-09-09T00:03:27;100603.91;;;17.44;68.37
42067;BME280;27734;47.028;28.820;2022-09-09T00:06:05;100601.25;;;17.42;68.70
42067;BME280;27734;47.028;28.820;2022-09-09T00:08:48;100602.09;;;17.40;68.53
42067;BME280;27734;47.028;28.820;2022-09-09T00:11:28;100602.95;;;17.39;68.91
42067;BME280;27734;47.028;28.820;2022-09-09T00:14:03;100595.90;;;17.38;68.92
42067;BME280;27734;47.028;28.820;2022-09-09T00:16:44;100601.17;;;17.35;68.94
42067;BME280;27734;47.028;28.820;2022-09-09T00:19:24;100603.84;;;17.36;69.02
42067;BME280;27734;47.028;28.820;2022-09-09T00:22:08;100601.20;;;17.38;69.16
42067;BME280;27734;47.028;28.820;2022-09-09T00:24:46;100604.75;;;17.40;68.99
42067;BME280;27734;47.028;28.820;2022-09-09T00:27:25;100600.31;;;17.39;68.94
42067;BME280;27734;47.028;28.820;2022-09-09T00:30:12;100598.53;;;17.36;69.12
42067;BME280;27734;47.028;28.820;2022-09-09T00:32:44;100611.78;;;17.35;69.42
42067;BME280;27734;47.028;28.820;2022-09-09T00:35:21;100602.05;;;17.35;69.50
42067;BME280;27734;47.028;28.820;2022-09-09T00:37:56;100603.83;;;17.35;68.74
42067;BME280;27734;47.028;28.820;2022-09-09T00:40:34;100601.14;;;17.32;69.57
42067;BME280;27734;47.028;28.820;2022-09-09T00:43:17;100601.98;;;17.28;69.42
42067;BME280;27734;47.028;28.820;2022-09-09T00:46:05;100611.66;;;17.22;69.78
42067;BME280;27734;47.028;28.820;2022-09-09T00:48:49;100609.84;;;17.18;69.54
42067;BME280;27734;47.028;28.820;2022-09-09T00:51:33;100608.92;;;17.15;69.57
42067;BME280;27734;47.028;28.820;2022-09-09T00:54:23;100615.98;;;17.13;69.97
42067;BME280;27734;47.028;28.820;2022-09-09T00:57:06;100616.86;;;17.13;69.60
42067;BME280;27734;47.028;28.820;2022-09-09T00:59:48;100615.00;;;17.06;70.22
42067;BME280;27734;47.028;28.820;2022-09-09T01:02:35;100616.78;;;17.05;69.90
42067;BME280;27734;47.028;28.820;2022-09-09T01:05:16;100610.58;;;17.03;70.10
42067;BME280;27734;47.028;28.820;2022-09-09T01:07:51;100614.11;;;17.04;70.02
42067;BME280;27734;47.028;28.820;2022-09-09T01:10:28;100618.53;;;17.03;70.63
42067;BME280;27734;47.028;28.820;2022-09-09T01:13:08;100614.95;;;17.01;70.62
42067;BME280;27734;47.028;28.820;2022-09-09T01:15:45;100621.99;;;16.98;70.23
42067;BME280;27734;47.028;28.820;2022-09-09T01:18:19;100614.87;;;16.94;70.56
42067;BME280;27734;47.028;28.820;2022-09-09T01:20:59;100609.55;;;16.92;70.53
42067;BME280;27734;47.028;28.820;2022-09-09T01:23:44;100618.41;;;16.93;70.96
42067;BME280;27734;47.028;28.820;2022-09-09T01:26:43;100611.31;;;16.92;70.96
42067;BME280;27734;47.028;28.820;2022-09-09T01:29:26;100611.31;;;16.92;70.54
42067;BME280;27734;47.028;28.820;2022-09-09T01:31:59;100606.05;;;16.95;70.78
42067;BME280;27734;47.028;28.820;2022-09-09T01:34:33;100606.05;;;16.95;70.82
42067;BME280;27734;47.028;28.820;2022-09-09T01:37:08;100604.23;;;16.91;71.37
42067;BME280;27734;47.028;28.820;2022-09-09T01:39:43;100609.52;;;16.89;70.84
42067;BME280;27734;47.028;28.820;2022-09-09T01:42:18;100607.77;;;16.89;71.11
42067;BME280;27734;47.028;28.820;2022-09-09T01:44:49;100606.87;;;16.91;71.20
42067;BME280;27734;47.028;28.820;2022-09-09T01:47:21;100611.30;;;16.90;71.38
42067;BME280;27734;47.028;28.820;2022-09-09T01:50:13;100613.03;;;16.86;71.82
42067;BME280;27734;47.028;28.820;2022-09-09T01:52:49;100614.76;;;16.84;71.47
42067;BME280;27734;47.028;28.820;2022-09-09T01:55:30;100611.17;;;16.82;71.81
42067;BME280;27734;47.028;28.820;2022-09-09T01:58:14;100618.23;;;16.80;71.97
42067;BME280;27734;47.028;28.820;2022-09-09T02:01:00;100616.41;;;16.76;71.28
42067;BME280;27734;47.028;28.820;2022-09-09T02:03:33;100616.41;;;16.76;72.15
42067;BME280;27734;47.028;28.820;2022-09-09T02:06:25;100619.92;;;16.74;71.96
42067;BME280;27734;47.028;28.820;2022-09-09T02:09:00;100633.16;;;16.72;71.56
42067;BME280;27734;47.028;28.820;2022-09-09T02:11:35;100624.27;;;16.70;71.52
42067;BME280;27734;47.028;28.820;2022-09-09T02:14:14;100630.47;;;16.69;71.65
42067;BME280;27734;47.028;28.820;2022-09-09T02:16:52;100622.49;;;16.67;72.45
42067;BME280;27734;47.028;28.820;2022-09-09T02:19:30;100626.86;;;16.65;71.76
42067;BME280;27734;47.028;28.820;2022-09-09T02:22:10;100621.52;;;16.62;71.90
42067;BME280;27734;47.028;28.820;2022-09-09T02:24:42;100625.92;;;16.60;72.11
42067;BME280;27734;47.028;28.820;2022-09-09T02:27:25;100621.50;;;16.61;72.75
42067;BME280;27734;47.028;28.820;2022-09-09T02:29:57;100618.88;;;16.62;72.46
42067;BME280;27734;47.028;28.820;2022-09-09T02:32:45;100620.64;;;16.62;72.09
42067;BME280;27734;47.028;28.820;2022-09-09T02:35:21;100628.58;;;16.60;73.07
42067;BME280;27734;47.028;28.820;2022-09-09T02:37:58;100617.95;;;16.59;72.79
42067;BME280;27734;47.028;28.820;2022-09-09T02:40:30;100622.38;;;16.58;73.13
42067;BME280;27734;47.028;28.820;2022-09-09T02:43:03;100621.46;;;16.58;72.05
42067;BME280;27734;47.028;28.820;2022-09-09T02:45:39;100620.56;;;16.56;72.38
42067;BME280;27734;47.028;28.820;2022-09-09T02:48:20;100624.05;;;16.53;72.36
42067;BME280;27734;47.028;28.820;2022-09-09T02:51:04;100620.52;;;16.52;73.35
42067;BME280;27734;47.028;28.820;2022-09-09T02:53:43;100612.59;;;16.54;72.72
42067;BME280;27734;47.028;28.820;2022-09-09T02:56:20;100623.21;;;16.56;73.43
42067;BME280;27734;47.028;28.820;2022-09-09T02:58:54;100611.76;;;16.57;73.41
42067;BME280;27734;47.028;28.820;2022-09-09T03:01:26;100619.69;;;16.55;72.73
42067;BME280;27734;47.028;28.820;2022-09-09T03:03:58;100621.44;;;16.56;72.76
42067;BME280;27734;47.028;28.820;2022-09-09T03:06:29;100621.41;;;16.53;72.79
42067;BME280;27734;47.028;28.820;2022-09-09T03:09:07;100624.92;;;16.50;73.26
42067;BME280;27734;47.028;28.820;2022-09-09T03:11:40;100628.38;;;16.46;73.48
42067;BME280;27734;47.028;28.820;2022-09-09T03:14:11;100638.95;;;16.45;73.80
42067;BME280;27734;47.028;28.820;2022-09-09T03:16:43;100640.73;;;16.44;73.07
42067;BME280;27734;47.028;28.820;2022-09-09T03:19:16;100633.62;;;16.42;73.08
42067;BME280;27734;47.028;28.820;2022-09-09T03:21:48;100629.20;;;16.42;73.09
42067;BME280;27734;47.028;28.820;2022-09-09T03:24:19;100630.09;;;16.41;73.71
42067;BME280;27734;47.028;28.820;2022-09-09T03:26:55;100632.73;;;16.41;74.02
42067;BME280;27734;47.028;28.820;2022-09-09T03:29:30;100638.94;;;16.43;73.46
42067;BME280;27734;47.028;28.820;2022-09-09T03:32:04;100644.23;;;16.43;73.80
42067;BME280;27734;47.028;28.820;2022-09-09T03:34:38;100631.88;;;16.44;74.05
42067;BME280;27734;47.028;28.820;2022-09-09T03:37:10;100636.29;;;16.43;73.83
42067;BME280;27734;47.028;28.820;2022-09-09T03:39:43;100643.33;;;16.41;73.33
42067;BME280;27734;47.028;28.820;2022-09-09T03:42:15;100655.59;;;16.36;73.21
42067;BME280;27734;47.028;28.820;2022-09-09T03:44:49;100647.61;;;16.33;73.39
42067;BME280;27734;47.028;28.820;2022-09-09T03:47:22;100650.27;;;16.31;73.71
42067;BME280;27734;47.028;28.820;2022-09-09T03:49:58;100646.66;;;16.28;74.01
42067;BME280;27734;47.028;28.820;2022-09-09T03:52:30;100650.20;;;16.27;73.48
42067;BME280;27734;47.028;28.820;2022-09-09T03:55:01;100649.28;;;16.26;74.01
42067;BME280;27734;47.028;28.820;2022-09-09T03:57:34;100654.55;;;16.25;73.27
42067;BME280;27734;47.028;28.820;2022-09-09T04:00:08;100654.55;;;16.25;73.74
42067;BME280;27734;47.028;28.820;2022-09-09T04:02:52;100659.88;;;16.26;73.42
42067;BME280;27734;47.028;28.820;2022-09-09T04:05:25;100656.44;;;16.32;73.49
42067;BME280;27734;47.028;28.820;2022-09-09T04:07:56;100646.77;;;16.35;73.48
42067;BME280;27734;47.028;28.820;2022-09-09T04:10:28;100650.34;;;16.39;74.23
42067;BME280;27734;47.028;28.820;2022-09-09T04:12:59;100657.48;;;16.43;74.05
42067;BME280;27734;47.028;28.820;2022-09-09T04:15:31;100652.22;;;16.46;74.35
42067;BME280;27734;47.028;28.820;2022-09-09T04:18:04;100657.59;;;16.51;74.28
42067;BME280;27734;47.028;28.820;2022-09-09T04:20:36;100650.56;;;16.54;73.83
42067;BME280;27734;47.028;28.820;2022-09-09T04:23:08;100648.86;;;16.58;73.69
42067;BME280;27734;47.028;28.820;2022-09-09T04:25:39;100648.04;;;16.64;74.01
42067;BME280;27734;47.028;28.820;2022-09-09T04:28:13;100652.52;;;16.68;73.58
42067;BME280;27734;47.028;28.820;2022-09-09T04:30:45;100642.84;;;16.71;73.44
42067;BME280;27734;47.028;28.820;2022-09-09T04:33:16;100642.00;;;16.74;73.47
42067;BME280;27734;47.028;28.820;2022-09-09T04:35:49;100647.34;;;16.77;73.89
42067;BME280;27734;47.028;28.820;2022-09-09T04:38:24;100643.87;;;16.81;73.60
42067;BME280;27734;47.028;28.820;2022-09-09T04:40:57;100639.48;;;16.85;73.39
42067;BME280;27734;47.028;28.820;2022-09-09T04:43:30;100640.45;;;16.90;73.82
42067;BME280;27734;47.028;28.820;2022-09-09T04:46:03;100629.02;;;16.93;73.30
42067;BME280;27734;47.028;28.820;2022-09-09T04:48:38;100642.30;;;16.96;73.67
42067;BME280;27734;47.028;28.820;2022-09-09T04:51:13;100643.20;;;16.98;72.70
42067;BME280;27734;47.028;28.820;2022-09-09T04:53:47;100649.38;;;16.98;72.92
42067;BME280;27734;47.028;28.820;2022-09-09T04:56:22;100652.10;;;17.04;72.83
42067;BME280;27734;47.028;28.820;2022-09-09T04:59:00;100648.66;;;17.12;72.99
42067;BME280;27734;47.028;28.820;2022-09-09T05:01:40;100646.94;;;17.17;73.15
42067;BME280;27734;47.028;28.820;2022-09-09T05:04:13;100648.78;;;17.22;72.21
42067;BME280;27734;47.028;28.820;2022-09-09T05:06:47;100639.07;;;17.24;71.85
42067;BME280;27734;47.028;28.820;2022-09-09T05:09:25;100644.39;;;17.26;72.02
42067;BME280;27734;47.028;28.820;2022-09-09T05:11:56;100645.41;;;17.36;72.60
42067;BME280;27734;47.028;28.820;2022-09-09T05:14:32;100643.69;;;17.42;72.27
42067;BME280;27734;47.028;28.820;2022-09-09T05:17:06;100646.44;;;17.52;71.64
42067;BME280;27734;47.028;28.820;2022-09-09T05:19:39;100636.76;;;17.58;72.09
42067;BME280;27734;47.028;28.820;2022-09-09T05:22:14;100637.70;;;17.67;71.98
42067;BME280;27734;47.028;28.820;2022-09-09T05:24:51;100636.89;;;17.74;71.96
42067;BME280;27734;47.028;28.820;2022-09-09T05:27:26;100636.06;;;17.79;71.82
42067;BME280;27734;47.028;28.820;2022-09-09T05:30:03;100634.31;;;17.83;71.42
42067;BME280;27734;47.028;28.820;2022-09-09T05:32:34;100628.13;;;17.81;71.20
42067;BME280;27734;47.028;28.820;2022-09-09T05:35:07;100616.56;;;17.77;71.37
42067;BME280;27734;47.028;28.820;2022-09-09T05:37:44;100623.73;;;17.86;71.60
42067;BME280;27734;47.028;28.820;2022-09-09T05:40:17;100629.11;;;17.91;71.30
42067;BME280;27734;47.028;28.820;2022-09-09T05:42:55;100630.88;;;17.95;71.32
42067;BME280;27734;47.028;28.820;2022-09-09T05:45:26;100634.48;;;18.00;71.28
42067;BME280;27734;47.028;28.820;2022-09-09T05:47:58;100634.55;;;18.08;71.19
42067;BME280;27734;47.028;28.820;2022-09-09T05:50:32;100628.38;;;18.15;71.20
42067;BME280;27734;47.028;28.820;2022-09-09T05:53:15;100615.14;;;18.21;71.54
42067;BME280;27734;47.028;28.820;2022-09-09T05:55:47;100622.27;;;18.27;71.14
42067;BME280;27734;47.028;28.820;2022-09-09T05:58:25;100624.97;;;18.35;71.29
42067;BME280;27734;47.028;28.820;2022-09-09T06:01:04;100622.33;;;18.38;71.09
42067;BME280;27734;47.028;28.820;2022-09-09T06:03:37;100630.34;;;18.44;71.52
42067;BME280;27734;47.028;28.820;2022-09-09T06:06:18;100627.70;;;18.48;71.00
42067;BME280;27734;47.028;28.820;2022-09-09T06:08:53;100632.12;;;18.51;71.25
42067;BME280;27734;47.028;28.820;2022-09-09T06:11:30;100640.13;;;18.56;71.17
42067;BME280;27734;47.028;28.820;2022-09-09T06:14:15;100639.28;;;18.61;71.17
42067;BME280;27734;47.028;28.820;2022-09-09T06:16:52;100632.22;;;18.69;71.08
42067;BME280;27734;47.028;28.820;2022-09-09T06:19:28;100641.14;;;18.79;70.72
42067;BME280;27734;47.028;28.820;2022-09-09T06:22:09;100631.44;;;18.84;70.90
42067;BME280;27734;47.028;28.820;2022-09-09T06:24:49;100634.13;;;18.91;70.91
42067;BME280;27734;47.028;28.820;2022-09-09T06:27:26;100634.16;;;19.00;71.13
42067;BME280;27734;47.028;28.820;2022-09-09T06:33:21;100639.54;;;19.20;70.60
42067;BME280;27734;47.028;28.820;2022-09-09T06:35:59;100632.47;;;19.33;70.72
42067;BME280;27734;47.028;28.820;2022-09-09T06:38:40;100628.95;;;19.48;70.86
42067;BME280;27734;47.028;28.820;2022-09-09T06:41:20;100625.39;;;19.58;70.73
42067;BME280;27734;47.028;28.820;2022-09-09T06:43:57;100634.27;;;19.66;70.80
42067;BME280;27734;47.028;28.820;2022-09-09T06:46:45;100634.30;;;19.82;70.89
42067;BME280;27734;47.028;28.820;2022-09-09T06:52:35;100626.29;;;20.14;70.36
42067;BME280;27734;47.028;28.820;2022-09-09T06:55:15;100627.13;;;20.30;70.23
42067;BME280;27734;47.028;28.820;2022-09-09T06:57:52;100635.09;;;20.44;70.62
42067;BME280;27734;47.028;28.820;2022-09-09T07:00:46;100626.19;;;20.59;69.88
42067;BME280;27734;47.028;28.820;2022-09-09T07:03:40;100620.84;;;20.71;69.89
42067;BME280;27734;47.028;28.820;2022-09-09T07:06:25;100624.34;;;20.81;69.87
42067;BME280;27734;47.028;28.820;2022-09-09T07:09:12;100619.87;;;20.85;69.39
42067;BME280;27734;47.028;28.820;2022-09-09T07:22:23;100634.84;;;21.16;68.47
42067;BME280;27734;47.028;28.820;2022-09-09T07:27:59;100645.40;;;21.36;68.03
42067;BME280;27734;47.028;28.820;2022-09-09T07:30:45;100645.33;;;21.47;68.23
42067;BME280;27734;47.028;28.820;2022-09-09T07:33:43;100651.45;;;21.65;67.39
42067;BME280;27734;47.028;28.820;2022-09-09T07:36:45;100643.35;;;21.77;67.89
42067;BME280;27734;47.028;28.820;2022-09-09T07:39:28;100637.88;;;21.93;68.07
42067;BME280;27734;47.028;28.820;2022-09-09T07:42:03;100638.63;;;22.07;67.46
42067;BME280;27734;47.028;28.820;2022-09-09T07:44:37;100631.39;;;22.18;67.32
42067;BME280;27734;47.028;28.820;2022-09-09T07:47:24;100619.71;;;22.29;66.50
42067;BME280;27734;47.028;28.820;2022-09-09T07:50:13;100616.87;;;22.47;66.19
42067;BME280;27734;47.028;28.820;2022-09-09T07:53:12;100612.98;;;22.73;66.42
42067;BME280;27734;47.028;28.820;2022-09-09T07:56:10;100608.25;;;22.93;65.35
42067;BME280;27734;47.028;28.820;2022-09-09T08:03:15;100615.79;;;23.30;64.98
42067;BME280;27734;47.028;28.820;2022-09-09T08:09:24;100614.44;;;23.61;63.73
42067;BME280;27734;47.028;28.820;2022-09-09T08:19:05;100594.27;;;23.93;62.90
42067;BME280;27734;47.028;28.820;2022-09-09T08:25:23;100593.98;;;24.08;61.82
42067;BME280;27734;47.028;28.820;2022-09-09T08:28:20;100592.97;;;24.15;61.32
42067;BME280;27734;47.028;28.820;2022-09-09T08:37:56;100579.23;;;24.76;60.02
42067;BME280;27734;47.028;28.820;2022-09-09T08:44:55;100565.81;;;25.17;59.40
42067;BME280;27734;47.028;28.820;2022-09-09T08:50:48;100555.31;;;25.45;57.31
42067;BME280;27734;47.028;28.820;2022-09-09T08:56:32;100554.30;;;25.83;57.18
42067;BME280;27734;47.028;28.820;2022-09-09T08:59:07;100550.27;;;26.01;56.49
42067;BME280;27734;47.028;28.820;2022-09-09T09:05:25;100540.17;;;26.41;54.65
42067;BME280;27734;47.028;28.820;2022-09-09T09:08:41;100528.31;;;26.48;54.63
42067;BME280;27734;47.028;28.820;2022-09-09T09:11:36;100532.78;;;26.49;52.94
42067;BME280;27734;47.028;28.820;2022-09-09T09:14:27;100519.72;;;26.67;53.06
42067;BME280;27734;47.028;28.820;2022-09-09T09:17:13;100525.88;;;26.70;51.55
42067;BME280;27734;47.028;28.820;2022-09-09T09:19:51;100518.33;;;26.83;52.14
42067;BME280;27734;47.028;28.820;2022-09-09T09:22:39;100516.13;;;26.96;52.08
42067;BME280;27734;47.028;28.820;2022-09-09T09:25:22;100513.28;;;27.01;50.68
42067;BME280;27734;47.028;28.820;2022-09-09T09:28:19;100514.10;;;27.03;51.47
42067;BME280;27734;47.028;28.820;2022-09-09T09:31:34;100501.36;;;27.08;50.79
42067;BME280;27734;47.028;28.820;2022-09-09T09:34:15;100501.56;;;27.02;49.59
42067;BME280;27734;47.028;28.820;2022-09-09T09:37:15;100495.05;;;27.09;49.41
42067;BME280;27734;47.028;28.820;2022-09-09T09:39:52;100490.38;;;27.14;49.74
42067;BME280;27734;47.028;28.820;2022-09-09T09:42:34;100492.36;;;27.09;49.47
42067;BME280;27734;47.028;28.820;2022-09-09T09:45:32;100496.67;;;27.15;49.31
42067;BME280;27734;47.028;28.820;2022-09-09T09:48:13;100497.34;;;27.21;48.22
42067;BME280;27734;47.028;28.820;2022-09-09T09:50:51;100505.27;;;27.26;47.75
42067;BME280;27734;47.028;28.820;2022-09-09T09:53:41;100504.23;;;27.32;47.01
42067;BME280;27734;47.028;28.820;2022-09-09T09:56:30;100505.87;;;27.36;47.09
42067;BME280;27734;47.028;28.820;2022-09-09T09:59:18;100499.55;;;27.37;46.86
42067;BME280;27734;47.028;28.820;2022-09-09T10:02:10;100498.50;;;27.41;46.75
42067;BME280;27734;47.028;28.820;2022-09-09T10:04:59;100497.67;;;27.39;46.12
42067;BME280;27734;47.028;28.820;2022-09-09T10:07:34;100497.94;;;27.31;45.72
42067;BME280;27734;47.028;28.820;2022-09-09T10:10:25;100493.45;;;27.32;46.27
42067;BME280;27734;47.028;28.820;2022-09-09T10:17:06;100504.30;;;27.29;45.93
42067;BME280;27734;47.028;28.820;2022-09-09T10:20:13;100507.09;;;27.25;45.84
42067;BME280;27734;47.028;28.820;2022-09-09T10:23:11;100516.09;;;27.24;45.60
42067;BME280;27734;47.028;28.820;2022-09-09T10:26:15;100505.52;;;27.18;45.54
42067;BME280;27734;47.028;28.820;2022-09-09T10:29:16;100505.37;;;27.23;45.34
42067;BME280;27734;47.028;28.820;2022-09-09T10:32:15;100508.89;;;27.25;45.14
42067;BME280;27734;47.028;28.820;2022-09-09T10:35:25;100510.81;;;27.21;44.94
42067;BME280;27734;47.028;28.820;2022-09-09T10:38:18;100503.03;;;27.12;44.76
42067;BME280;27734;47.028;28.820;2022-09-09T10:41:18;100505.97;;;27.04;44.02
42067;BME280;27734;47.028;28.820;2022-09-09T10:44:14;100498.91;;;27.00;44.81
42067;BME280;27734;47.028;28.820;2022-09-09T10:47:03;100491.94;;;26.95;44.22
42067;BME280;27734;47.028;28.820;2022-09-09T10:49:56;100497.27;;;26.96;43.71
42067;BME280;27734;47.028;28.820;2022-09-09T10:52:37;100497.38;;;26.93;44.15
42067;BME280;27734;47.028;28.820;2022-09-09T10:55:31;100492.86;;;26.94;44.24
42067;BME280;27734;47.028;28.820;2022-09-09T10:58:22;100491.94;;;26.95;44.59
42067;BME280;27734;47.028;28.820;2022-09-09T11:01:17;100487.38;;;26.97;44.16
42067;BME280;27734;47.028;28.820;2022-09-09T11:04:15;100489.05;;;27.01;44.39
42067;BME280;27734;47.028;28.820;2022-09-09T11:06:56;100489.05;;;27.01;44.38
42067;BME280;27734;47.028;28.820;2022-09-09T11:09:54;100489.92;;;27.01;44.56
42067;BME280;27734;47.028;28.820;2022-09-09T11:13:09;100488.24;;;26.97;43.87
42067;BME280;27734;47.028;28.820;2022-09-09T11:15:58;100482.19;;;26.90;43.54
42067;BME280;27734;47.028;28.820;2022-09-09T11:18:39;100493.05;;;26.87;43.99
42067;BME280;27734;47.028;28.820;2022-09-09T11:21:19;100481.52;;;26.84;44.21
42067;BME280;27734;47.028;28.820;2022-09-09T11:24:18;100486.22;;;26.77;43.68
42067;BME280;27734;47.028;28.820;2022-09-09T11:27:03;100488.06;;;26.75;44.04
42067;BME280;27734;47.028;28.820;2022-09-09T11:33:34;100483.72;;;26.71;44.04
42067;BME280;27734;47.028;28.820;2022-09-09T11:36:46;100476.72;;;26.65;43.66
42067;BME280;27734;47.028;28.820;2022-09-09T11:39:43;100475.19;;;26.55;43.11
42067;BME280;27734;47.028;28.820;2022-09-09T11:42:24;100471.96;;;26.44;42.95
42067;BME280;27734;47.028;28.820;2022-09-09T11:45:21;100472.23;;;26.34;42.81
42067;BME280;27734;47.028;28.820;2022-09-09T11:48:01;100464.40;;;26.27;42.67
42067;BME280;27734;47.028;28.820;2022-09-09T11:50:45;100460.15;;;26.19;43.10
42067;BME280;27734;47.028;28.820;2022-09-09T11:53:24;100459.38;;;26.14;42.75
42067;BME280;27734;47.028;28.820;2022-09-09T11:56:13;100462.20;;;26.10;43.04
42067;BME280;27734;47.028;28.820;2022-09-09T11:59:05;100462.34;;;26.05;43.14
42067;BME280;27734;47.028;28.820;2022-09-09T12:01:53;100449.89;;;26.03;43.15
42067;BME280;27734;47.028;28.820;2022-09-09T12:04:38;100448.16;;;26.00;42.97
42067;BME280;27734;47.028;28.820;2022-09-09T12:07:36;100451.72;;;26.00;42.70
42067;BME280;27734;47.028;28.820;2022-09-09T12:10:30;100450.84;;;26.00;43.35
42067;BME280;27734;47.028;28.820;2022-09-09T12:13:18;100442.73;;;26.01;43.42
42067;BME280;27734;47.028;28.820;2022-09-09T12:16:03;100448.94;;;26.04;42.96
42067;BME280;27734;47.028;28.820;2022-09-09T12:22:04;100439.95;;;26.05;42.62
42067;BME280;27734;47.028;28.820;2022-09-09T12:24:50;100443.42;;;26.08;42.79
42067;BME280;27734;47.028;28.820;2022-09-09T12:27:50;100437.95;;;26.11;43.17
42067;BME280;27734;47.028;28.820;2022-09-09T12:30:50;100427.11;;;26.14;42.74
42067;BME280;27734;47.028;28.820;2022-09-09T12:33:38;100431.58;;;26.15;43.22
42067;BME280;27734;47.028;28.820;2022-09-09T12:36:21;100427.92;;;26.18;42.83
42067;BME280;27734;47.028;28.820;2022-09-09T12:38:59;100420.73;;;26.18;42.95
42067;BME280;27734;47.028;28.820;2022-09-09T12:41:59;100420.73;;;26.18;43.15
42067;BME280;27734;47.028;28.820;2022-09-09T12:44:37;100417.08;;;26.21;43.18
42067;BME280;27734;47.028;28.820;2022-09-09T12:47:23;100420.63;;;26.22;43.00
42067;BME280;27734;47.028;28.820;2022-09-09T12:50:01;100422.45;;;26.21;43.20
42067;BME280;27734;47.028;28.820;2022-09-09T12:52:40;100425.09;;;26.23;43.06
42067;BME280;27734;47.028;28.820;2022-09-09T12:55:20;100417.08;;;26.21;42.86
42067;BME280;27734;47.028;28.820;2022-09-09T12:57:59;100421.50;;;26.22;42.65
42067;BME280;27734;47.028;28.820;2022-09-09T13:00:55;100424.23;;;26.21;42.77
42067;BME280;27734;47.028;28.820;2022-09-09T13:03:32;100418.04;;;26.18;42.42
42067;BME280;27734;47.028;28.820;2022-09-09T13:06:18;100414.57;;;26.15;42.30
42067;BME280;27734;47.028;28.820;2022-09-09T13:09:09;100413.53;;;26.19;41.86
42067;BME280;27734;47.028;28.820;2022-09-09T13:11:43;100414.34;;;26.23;42.25
42067;BME280;27734;47.028;28.820;2022-09-09T13:14:24;100407.97;;;26.25;41.99
42067;BME280;27734;47.028;28.820;2022-09-09T13:17:35;100415.12;;;26.26;42.36
42067;BME280;27734;47.028;28.820;2022-09-09T13:20:21;100412.42;;;26.26;42.05
42067;BME280;27734;47.028;28.820;2022-09-09T13:23:00;100415.98;;;26.27;42.24
42067;BME280;27734;47.028;28.820;2022-09-09T13:25:59;100419.58;;;26.27;41.90
42067;BME280;27734;47.028;28.820;2022-09-09T13:28:35;100401.81;;;26.22;42.17
42067;BME280;27734;47.028;28.820;2022-09-09T13:31:33;100423.23;;;26.25;42.08
42067;BME280;27734;47.028;28.820;2022-09-09T13:37:16;100426.11;;;26.18;42.02
42067;BME280;27734;47.028;28.820;2022-09-09T13:39:59;100426.15;;;26.17;42.31
42067;BME280;27734;47.028;28.820;2022-09-09T13:42:36;100425.38;;;26.13;42.61
42067;BME280;27734;47.028;28.820;2022-09-09T13:45:34;100422.73;;;26.12;42.68
42067;BME280;27734;47.028;28.820;2022-09-09T13:48:26;100431.66;;;26.12;42.60
42067;BME280;27734;47.028;28.820;2022-09-09T13:51:05;100424.52;;;26.11;42.56
42067;BME280;27734;47.028;28.820;2022-09-09T13:53:47;100430.80;;;26.12;42.33
42067;BME280;27734;47.028;28.820;2022-09-09T13:56:44;100420.27;;;26.04;42.52
42067;BME280;27734;47.028;28.820;2022-09-09T13:59:29;100429.11;;;26.08;42.88
42067;BME280;27734;47.028;28.820;2022-09-09T14:02:17;100439.91;;;26.06;42.48
42067;BME280;27734;47.028;28.820;2022-09-09T14:04:57;100431.02;;;26.04;42.95
42067;BME280;27734;47.028;28.820;2022-09-09T14:07:35;100435.54;;;26.02;42.90
42067;BME280;27734;47.028;28.820;2022-09-09T14:10:12;100428.47;;;25.99;43.41
42067;BME280;27734;47.028;28.820;2022-09-09T14:12:47;100434.77;;;25.97;43.33
42067;BME280;27734;47.028;28.820;2022-09-09T14:15:20;100434.03;;;25.92;43.59
42067;BME280;27734;47.028;28.820;2022-09-09T14:18:00;100429.84;;;25.81;44.19
42067;BME280;27734;47.028;28.820;2022-09-09T14:20:37;100434.52;;;25.75;44.34
42067;BME280;27734;47.028;28.820;2022-09-09T14:23:16;100435.59;;;25.68;44.57
42067;BME280;27734;47.028;28.820;2022-09-09T14:25:53;100437.58;;;25.61;45.26
42067;BME280;27734;47.028;28.820;2022-09-09T14:31:24;100430.84;;;25.44;46.36
42067;BME280;27734;47.028;28.820;2022-09-09T14:33:58;100440.89;;;25.38;46.08
42067;BME280;27734;47.028;28.820;2022-09-09T14:36:33;100439.31;;;25.29;46.55
42067;BME280;27734;47.028;28.820;2022-09-09T14:39:20;100443.89;;;25.24;46.46
42067;BME280;27734;47.028;28.820;2022-09-09T14:41:53;100445.83;;;25.19;46.99
42067;BME280;27734;47.028;28.820;2022-09-09T14:44:31;100450.37;;;25.17;47.47
42067;BME280;27734;47.028;28.820;2022-09-09T14:47:04;100446.86;;;25.13;47.81
42067;BME280;27734;47.028;28.820;2022-09-09T14:49:36;100452.30;;;25.10;47.57
42067;BME280;27734;47.028;28.820;2022-09-09T14:52:08;100444.36;;;25.05;48.21
42067;BME280;27734;47.028;28.820;2022-09-09T14:54:41;100451.58;;;25.03;48.12
42067;BME280;27734;47.028;28.820;2022-09-09T14:57:12;100461.48;;;25.01;48.50
42067;BME280;27734;47.028;28.820;2022-09-09T14:59:43;100448.14;;;24.98;48.28
42067;BME280;27734;47.028;28.820;2022-09-09T15:02:17;100442.92;;;24.92;48.17
42067;BME280;27734;47.028;28.820;2022-09-09T15:04:49;100442.09;;;24.88;48.36
42067;BME280;27734;47.028;28.820;2022-09-09T15:07:22;100443.98;;;24.85;48.17
42067;BME280;27734;47.028;28.820;2022-09-09T15:09:55;100453.95;;;24.80;48.56